createdAt,value
2017-11-03T00:00:54.678Z,305.27
2017-11-03T00:03:22.071Z,429.70
2017-11-03T00:05:49.610Z,650.73
2017-11-03T00:08:17.006Z,493.53
2017-11-03T00:10:44.419Z,548.63
2017-11-03T00:13:11.819Z,585.80
2017-11-03T00:15:39.239Z,526.10
2017-11-03T00:18:06.641Z,517.00
2017-11-03T00:20:34.038Z,476.37
2017-11-03T00:23:01.473Z,403.50
2017-11-03T00:25:28.891Z,581.77
2017-11-03T00:27:56.322Z,462.50
2017-11-03T00:30:23.719Z,579.03
2017-11-03T00:32:51.203Z,451.33
2017-11-03T00:35:18.607Z,406.80
2017-11-03T00:37:46.011Z,418.30
2017-11-03T00:40:13.467Z,449.97
2017-11-03T00:42:40.871Z,386.07
2017-11-03T00:45:08.381Z,370.43
2017-11-03T00:47:35.779Z,338.43
2017-11-03T00:50:03.315Z,266.93
2017-11-03T00:52:30.742Z,323.93
2017-11-03T00:54:58.147Z,140.90
2017-11-03T00:57:25.551Z,228.93
2017-11-03T00:59:52.947Z,252.77
2017-11-03T01:02:20.375Z,339.73
2017-11-03T01:04:47.772Z,263.73
2017-11-03T01:07:15.286Z,317.23
2017-11-03T01:09:42.679Z,315.50
2017-11-03T01:12:10.103Z,254.93
2017-11-03T01:14:37.515Z,269.10
2017-11-03T01:17:05.016Z,440.30
2017-11-03T01:19:32.423Z,300.87
2017-11-03T01:21:59.824Z,425.73
2017-11-03T01:24:27.222Z,400.87
2017-11-03T01:26:54.623Z,403.20
2017-11-03T01:29:22.031Z,370.50
2017-11-03T01:31:49.422Z,397.93
2017-11-03T01:34:16.899Z,232.27
2017-11-03T01:36:44.351Z,245.87
2017-11-03T01:39:11.747Z,302.80
2017-11-03T01:41:39.148Z,228.83
2017-11-03T01:44:06.554Z,314.03
2017-11-03T01:46:33.942Z,404.10
2017-11-03T01:49:01.424Z,323.47
2017-11-03T01:51:28.900Z,422.00
2017-11-03T01:53:56.290Z,335.40
2017-11-03T01:56:23.795Z,377.80
2017-11-03T01:58:51.227Z,466.00
2017-11-03T02:01:18.716Z,420.80
2017-11-03T02:03:46.168Z,409.67
2017-11-03T02:06:13.574Z,393.07
2017-11-03T02:08:40.962Z,458.60
2017-11-03T02:11:08.367Z,353.23
2017-11-03T02:13:35.754Z,375.07
2017-11-03T02:16:03.160Z,281.73
2017-11-03T02:18:30.602Z,416.17
2017-11-03T02:20:58.010Z,467.70
2017-11-03T02:23:25.398Z,348.57
2017-11-03T02:25:52.863Z,457.57
2017-11-03T02:28:20.251Z,352.00
2017-11-03T02:30:47.655Z,376.43
2017-11-03T02:33:15.130Z,322.23
2017-11-03T02:35:42.526Z,295.87
2017-11-03T02:38:09.947Z,343.37
2017-11-03T02:40:37.404Z,309.47
2017-11-03T02:43:04.826Z,246.80
2017-11-03T02:45:32.235Z,262.70
2017-11-03T02:47:59.671Z,287.13
2017-11-03T02:50:27.130Z,192.03
2017-11-03T02:52:54.522Z,206.97
2017-11-03T02:55:21.922Z,201.77
2017-11-03T02:57:49.310Z,255.30
2017-11-03T03:00:16.716Z,240.68
2017-11-03T03:02:44.111Z,180.77
2017-11-03T03:05:11.523Z,142.10
2017-11-03T03:07:38.911Z,292.47
2017-11-03T03:10:06.370Z,212.70
2017-11-03T03:12:33.815Z,241.30
2017-11-03T03:15:01.280Z,204.93
2017-11-03T03:17:28.741Z,153.23
2017-11-03T03:19:56.124Z,173.50
2017-11-03T03:22:23.553Z,148.60
2017-11-03T03:24:50.945Z,285.03
2017-11-03T03:27:18.350Z,142.40
2017-11-03T03:29:45.815Z,199.83
2017-11-03T03:32:13.215Z,214.47
2017-11-03T03:34:40.627Z,254.37
2017-11-03T03:37:08.083Z,254.43
2017-11-03T03:39:35.462Z,233.53
2017-11-03T03:42:02.862Z,227.07
2017-11-03T03:44:30.257Z,305.77
2017-11-03T03:46:57.665Z,239.43
2017-11-03T03:49:25.055Z,194.40
2017-11-03T03:51:52.477Z,301.20
2017-11-03T03:54:19.871Z,317.87
2017-11-03T03:56:47.267Z,256.03
2017-11-03T03:59:14.684Z,191.77
2017-11-03T04:01:42.074Z,190.33
2017-11-03T04:04:09.475Z,262.90
2017-11-03T04:06:36.866Z,290.53
2017-11-03T04:09:04.283Z,463.73
2017-11-03T04:11:31.758Z,346.57
2017-11-03T04:13:59.218Z,243.10
2017-11-03T04:16:26.607Z,348.53
2017-11-03T04:18:54.026Z,453.53
2017-11-03T04:21:21.487Z,384.93
2017-11-03T04:23:48.931Z,451.67
2017-11-03T04:26:16.403Z,355.23
2017-11-03T04:28:43.865Z,557.37
2017-11-03T04:31:11.255Z,534.07
2017-11-03T04:33:38.754Z,465.13
2017-11-03T04:36:06.219Z,394.07
2017-11-03T04:38:33.619Z,472.83
2017-11-03T04:41:01.030Z,416.77
2017-11-03T04:43:28.439Z,389.60
2017-11-03T04:45:55.827Z,399.43
2017-11-03T04:48:23.291Z,465.33
2017-11-03T04:50:50.746Z,361.37
2017-11-03T04:53:18.143Z,491.50
2017-11-03T04:55:45.584Z,444.97
2017-11-03T04:58:12.970Z,362.43
2017-11-03T05:00:40.486Z,409.13
2017-11-03T05:03:07.914Z,315.50
2017-11-03T05:05:35.306Z,338.00
2017-11-03T05:08:02.707Z,460.57
2017-11-03T05:10:30.113Z,445.63
2017-11-03T05:12:57.555Z,407.77
2017-11-03T05:15:25.006Z,452.53
2017-11-03T05:17:52.407Z,403.27
2017-11-03T05:20:19.808Z,407.60
2017-11-03T05:22:47.203Z,306.20
2017-11-03T05:25:14.639Z,489.87
2017-11-03T05:27:42.103Z,299.90
2017-11-03T05:30:09.513Z,451.40
2017-11-03T05:32:37.005Z,389.73
2017-11-03T05:35:04.461Z,305.37
2017-11-03T05:37:31.859Z,393.00
2017-11-03T05:39:59.253Z,325.63
2017-11-03T05:42:26.643Z,348.77
2017-11-03T05:44:54.050Z,329.40
2017-11-03T05:47:21.451Z,375.33
2017-11-03T05:52:12.343Z,185.53
2017-11-03T05:54:39.816Z,327.20
2017-11-03T05:57:07.267Z,330.40
2017-11-03T05:59:34.722Z,303.83
2017-11-03T06:02:02.131Z,269.27
2017-11-03T06:04:29.530Z,287.70
2017-11-03T06:06:56.918Z,277.87
2017-11-03T06:09:24.348Z,309.03
2017-11-03T06:11:51.747Z,165.70
2017-11-03T06:14:19.151Z,260.90
2017-11-03T06:16:46.562Z,237.23
2017-11-03T06:19:13.958Z,264.70
2017-11-03T06:21:41.367Z,332.67
2017-11-03T06:24:08.778Z,443.87
2017-11-03T06:26:36.187Z,504.20
2017-11-03T06:29:03.688Z,288.30
2017-11-03T06:31:31.086Z,214.33
2017-11-03T06:33:58.497Z,296.43
2017-11-03T06:36:25.890Z,261.07
2017-11-03T06:38:53.315Z,432.90
2017-11-03T06:41:20.711Z,268.50
2017-11-03T06:43:48.106Z,261.50
2017-11-03T06:46:15.506Z,361.67
2017-11-03T06:48:42.903Z,466.40
2017-11-03T06:51:10.306Z,353.93
2017-11-03T06:53:37.701Z,322.60
2017-11-03T06:56:05.096Z,300.43
2017-11-03T06:58:32.565Z,379.93
2017-11-03T07:00:59.957Z,295.48
2017-11-03T07:03:27.362Z,338.83
2017-11-03T07:05:54.819Z,311.20
2017-11-03T07:08:22.273Z,310.87
2017-11-03T07:10:49.738Z,396.70
2017-11-03T07:13:17.142Z,364.07
2017-11-03T07:15:44.534Z,255.13
2017-11-03T07:18:11.994Z,266.17
2017-11-03T07:20:39.450Z,285.83
2017-11-03T07:23:06.876Z,145.90
2017-11-03T07:25:34.255Z,259.67
2017-11-03T07:28:01.681Z,228.10
2017-11-03T07:30:29.078Z,276.83
2017-11-03T07:32:56.479Z,224.70
2017-11-03T07:35:23.871Z,229.93
2017-11-03T07:37:51.268Z,290.00
2017-11-03T07:40:18.678Z,197.60
2017-11-03T07:42:46.098Z,262.77
2017-11-03T07:45:13.498Z,210.93
2017-11-03T07:47:40.910Z,165.97
2017-11-03T07:50:08.367Z,232.03
2017-11-03T07:52:35.766Z,195.03
2017-11-03T07:55:03.171Z,185.70
2017-11-03T07:57:30.580Z,196.77
2017-11-03T07:59:57.971Z,162.87
2017-11-03T08:02:25.384Z,196.30
2017-11-03T08:04:52.778Z,155.80
2017-11-03T08:07:20.174Z,175.00
2017-11-03T08:09:47.576Z,79.93
2017-11-03T08:12:14.972Z,113.83
2017-11-03T08:14:42.374Z,96.03
2017-11-03T08:17:09.778Z,107.37
2017-11-03T08:19:37.187Z,84.70
2017-11-03T08:22:04.690Z,163.80
2017-11-03T08:24:32.102Z,145.07
2017-11-03T08:26:59.499Z,116.13
2017-11-03T08:29:26.907Z,84.27
2017-11-03T08:31:54.302Z,74.83
2017-11-03T08:34:21.726Z,52.63
2017-11-03T08:36:49.119Z,46.33
2017-11-03T08:39:16.530Z,93.10
2017-11-03T08:41:43.927Z,47.87
2017-11-03T08:44:11.335Z,41.03
2017-11-03T08:46:38.742Z,32.80
2017-11-03T08:49:06.202Z,45.70
2017-11-03T08:51:33.591Z,66.53
2017-11-03T08:54:00.990Z,71.97
2017-11-03T08:56:28.402Z,72.53
2017-11-03T08:58:55.802Z,66.80
2017-11-03T09:01:23.202Z,53.33
2017-11-03T09:03:50.612Z,54.53
2017-11-03T09:06:18.086Z,65.33
2017-11-03T09:08:45.478Z,67.73
2017-11-03T09:11:12.882Z,58.37
2017-11-03T09:13:40.279Z,99.87
2017-11-03T09:16:07.706Z,80.17
2017-11-03T09:18:35.162Z,75.63
2017-11-03T09:21:02.562Z,53.50
2017-11-03T09:23:29.979Z,72.83
2017-11-03T09:25:57.390Z,48.03
2017-11-03T09:28:24.782Z,55.83
2017-11-03T09:30:52.195Z,58.97
2017-11-03T09:33:19.594Z,59.03
2017-11-03T09:35:46.994Z,46.77
2017-11-03T09:38:14.391Z,47.93
2017-11-03T09:40:41.839Z,64.93
2017-11-03T09:43:09.236Z,58.67
2017-11-03T09:45:36.630Z,37.20
2017-11-03T09:48:04.087Z,35.43
2017-11-03T09:50:31.496Z,28.33
2017-11-03T09:52:58.891Z,30.07
2017-11-03T09:55:26.403Z,30.47
2017-11-03T09:57:53.802Z,37.83
2017-11-03T10:00:21.202Z,32.00
2017-11-03T10:02:48.587Z,41.53
2017-11-03T10:05:15.991Z,42.97
2017-11-03T10:07:43.378Z,35.73
2017-11-03T10:10:10.786Z,33.47
2017-11-03T10:12:38.179Z,32.43
2017-11-03T10:15:05.601Z,36.50
2017-11-03T10:17:32.990Z,34.37
2017-11-03T10:20:00.383Z,36.43
2017-11-03T10:22:27.806Z,32.60
2017-11-03T10:24:55.202Z,44.73
2017-11-03T10:27:22.609Z,33.27
2017-11-03T10:29:50.079Z,27.73
2017-11-03T10:32:17.492Z,29.93
2017-11-03T10:34:44.886Z,29.93
2017-11-03T10:37:12.287Z,29.00
2017-11-03T10:39:39.694Z,24.80
2017-11-03T10:42:07.173Z,29.20
2017-11-03T10:44:34.546Z,29.17
2017-11-03T10:47:01.963Z,29.33
2017-11-03T10:49:29.459Z,32.40
2017-11-03T10:51:56.871Z,29.47
2017-11-03T10:54:24.306Z,28.87
2017-11-03T10:56:51.715Z,32.70
2017-11-03T10:59:19.147Z,31.60
2017-11-03T11:01:46.632Z,30.73
2017-11-03T11:04:14.030Z,37.37
2017-11-03T11:06:41.439Z,29.30
2017-11-03T11:09:08.866Z,38.67
2017-11-03T11:11:36.346Z,32.63
2017-11-03T11:16:36.618Z,29.23
2017-11-03T11:19:04.007Z,28.43
2017-11-03T11:21:31.483Z,25.63
2017-11-03T11:23:58.887Z,25.63
2017-11-03T11:26:26.282Z,24.17
2017-11-03T11:28:53.677Z,23.83
2017-11-03T11:31:21.073Z,22.87
2017-11-03T11:33:48.554Z,32.10
2017-11-03T11:36:15.954Z,25.87
2017-11-03T11:38:43.354Z,23.30
2017-11-03T11:41:10.831Z,23.47
2017-11-03T11:43:38.260Z,23.00
2017-11-03T11:46:05.655Z,25.03
2017-11-03T11:48:33.101Z,28.47
2017-11-03T11:51:00.487Z,24.67
2017-11-03T11:53:27.902Z,29.33
2017-11-03T11:55:55.310Z,23.53
2017-11-03T11:58:22.729Z,23.17
2017-11-03T12:00:50.136Z,28.77
2017-11-03T12:03:17.628Z,23.73
2017-11-03T12:05:45.023Z,21.47
2017-11-03T12:08:12.424Z,28.17
2017-11-03T12:10:39.818Z,18.20
2017-11-03T12:13:07.202Z,16.20
2017-11-03T12:15:34.712Z,23.17
2017-11-03T12:18:02.101Z,20.27
2017-11-03T12:20:29.494Z,21.27
2017-11-03T12:22:56.942Z,24.30
2017-11-03T12:25:24.431Z,17.83
2017-11-03T12:27:51.854Z,15.63
2017-11-03T12:30:19.288Z,12.93
2017-11-03T12:32:46.696Z,17.60
2017-11-03T12:35:14.098Z,15.87
2017-11-03T12:37:41.500Z,15.10
2017-11-03T12:40:08.991Z,13.97
2017-11-03T12:42:36.431Z,15.37
2017-11-03T12:45:03.839Z,16.50
2017-11-03T12:47:31.246Z,11.83
2017-11-03T12:49:58.702Z,16.83
2017-11-03T12:52:26.171Z,15.27
2017-11-03T12:54:53.610Z,13.50
2017-11-03T12:57:21.089Z,10.30
2017-11-03T12:59:48.473Z,21.40
2017-11-03T13:02:15.874Z,14.10
2017-11-03T13:04:43.339Z,16.83
2017-11-03T13:07:10.737Z,17.83
2017-11-03T13:09:38.158Z,17.30
2017-11-03T13:12:05.586Z,19.17
2017-11-03T13:14:33.072Z,26.07
2017-11-03T13:17:00.458Z,16.20
2017-11-03T13:19:27.851Z,20.30
2017-11-03T13:21:55.245Z,20.83
2017-11-03T13:24:22.754Z,19.00
2017-11-03T13:26:50.146Z,17.33
2017-11-03T13:29:17.530Z,16.77
2017-11-03T13:31:44.926Z,19.40
2017-11-03T13:34:12.321Z,17.90
2017-11-03T13:36:39.731Z,14.10
2017-11-03T13:39:07.145Z,13.30
2017-11-03T13:41:34.599Z,14.23
2017-11-03T13:44:01.998Z,13.40
2017-11-03T13:46:29.370Z,7.07
2017-11-03T13:48:56.762Z,12.30
2017-11-03T13:51:24.205Z,10.60
2017-11-03T13:53:51.676Z,5.07
2017-11-03T13:56:19.110Z,10.23
2017-11-03T13:58:46.572Z,13.53
2017-11-03T14:01:13.971Z,3.90
2017-11-03T14:03:41.362Z,10.10
2017-11-03T14:06:08.834Z,4.43
2017-11-03T14:08:36.350Z,9.17
2017-11-03T14:11:03.736Z,6.63
2017-11-03T14:13:31.202Z,3.73
2017-11-03T14:15:58.659Z,9.17
2017-11-03T14:18:26.058Z,8.77
2017-11-03T14:20:53.470Z,9.50
2017-11-03T14:23:20.864Z,6.73
2017-11-03T14:25:48.287Z,6.67
2017-11-03T14:28:15.695Z,3.10
2017-11-03T14:30:43.087Z,4.77
2017-11-03T14:33:10.554Z,5.83
2017-11-03T14:35:38.021Z,4.10
2017-11-03T14:38:05.391Z,3.70
2017-11-03T14:40:32.819Z,8.53
2017-11-03T14:43:00.274Z,6.17
2017-11-03T14:45:27.675Z,3.73
2017-11-03T14:47:55.086Z,3.30
2017-11-03T14:50:22.484Z,4.00
2017-11-03T14:52:49.872Z,5.70
2017-11-03T14:55:17.263Z,8.67
2017-11-03T14:57:44.714Z,11.20
2017-11-03T15:00:12.172Z,7.67
2017-11-03T15:02:39.559Z,6.23
2017-11-03T15:05:06.970Z,7.97
2017-11-03T15:07:34.370Z,9.60
2017-11-03T15:10:01.762Z,9.80
2017-11-03T15:12:29.255Z,5.03
2017-11-03T15:14:56.658Z,8.47
2017-11-03T15:17:24.054Z,7.93
2017-11-03T15:19:51.460Z,11.60
2017-11-03T15:22:18.851Z,8.23
2017-11-03T15:24:46.336Z,13.93
2017-11-03T15:27:13.787Z,17.13
2017-11-03T15:29:41.247Z,15.73
2017-11-03T15:32:08.702Z,14.93
2017-11-03T15:34:36.175Z,13.23
2017-11-03T15:37:03.574Z,21.23
2017-11-03T15:39:30.979Z,11.83
2017-11-03T15:41:58.430Z,11.67
2017-11-03T15:44:25.882Z,16.40
2017-11-03T15:46:53.274Z,15.80
2017-11-03T15:49:20.699Z,16.90
2017-11-03T15:51:48.154Z,13.70
2017-11-03T15:54:15.538Z,21.90
2017-11-03T15:56:42.934Z,14.77
2017-11-03T15:59:10.414Z,19.83
2017-11-03T16:01:37.830Z,20.62
2017-11-03T16:04:05.249Z,23.33
2017-11-03T16:06:32.643Z,24.17
2017-11-03T16:09:00.038Z,19.90
2017-11-03T16:11:27.439Z,30.20
2017-11-03T16:13:54.834Z,26.30
2017-11-03T16:16:22.302Z,27.60
2017-11-03T16:18:49.701Z,29.10
2017-11-03T16:21:17.119Z,28.80
2017-11-03T16:23:44.571Z,30.27
2017-11-03T16:26:12.036Z,37.43
2017-11-03T16:28:39.423Z,38.73
2017-11-03T16:31:06.831Z,35.90
2017-11-03T16:33:34.226Z,39.07
2017-11-03T16:36:01.658Z,41.97
2017-11-03T16:38:29.043Z,42.60
2017-11-03T16:40:56.471Z,36.87
2017-11-03T16:43:23.918Z,44.87
2017-11-03T16:45:51.354Z,48.83
2017-11-03T16:48:18.835Z,45.00
2017-11-03T16:50:46.290Z,49.43
2017-11-03T16:53:13.746Z,42.20
2017-11-03T16:55:41.214Z,45.93
2017-11-03T16:58:08.614Z,50.00
2017-11-03T17:00:36.007Z,48.40
2017-11-03T17:03:03.412Z,48.97
2017-11-03T17:05:30.808Z,45.43
2017-11-03T17:07:58.302Z,40.73
2017-11-03T17:10:25.698Z,43.97
2017-11-03T17:12:53.105Z,47.73
2017-11-03T17:15:20.494Z,49.60
2017-11-03T17:17:47.903Z,48.83
2017-11-03T17:20:15.300Z,45.63
2017-11-03T17:22:42.690Z,46.03
2017-11-03T17:25:10.087Z,44.00
2017-11-03T17:27:37.503Z,53.10
2017-11-03T17:30:04.904Z,51.97
2017-11-03T17:32:32.290Z,44.70
2017-11-03T17:34:59.759Z,47.73
2017-11-03T17:37:27.159Z,42.63
2017-11-03T17:39:54.543Z,48.80
2017-11-03T17:42:21.935Z,41.70
2017-11-03T17:44:49.345Z,41.17
2017-11-03T17:47:16.735Z,46.07
2017-11-03T17:49:44.132Z,50.97
2017-11-03T17:52:11.583Z,51.83
2017-11-03T17:54:38.983Z,48.77
2017-11-03T17:57:06.475Z,52.67
2017-11-03T17:59:33.882Z,53.33
2017-11-03T18:02:01.284Z,47.07
2017-11-03T18:04:28.718Z,57.20
2017-11-03T18:06:56.178Z,49.60
2017-11-03T18:09:23.579Z,54.13
2017-11-03T18:11:51.003Z,54.30
2017-11-03T18:14:18.407Z,49.20
2017-11-03T18:16:45.818Z,53.60
2017-11-03T18:19:13.223Z,56.23
2017-11-03T18:21:40.621Z,53.50
2017-11-03T18:24:08.140Z,56.80
2017-11-03T18:26:35.521Z,54.47
2017-11-03T18:29:02.919Z,49.23
2017-11-03T18:31:30.314Z,56.67
2017-11-03T18:33:57.749Z,57.80
2017-11-03T18:36:25.142Z,49.50
2017-11-03T18:38:52.543Z,49.77
2017-11-03T18:41:19.934Z,53.47
2017-11-03T18:43:47.338Z,57.97
2017-11-03T18:46:14.758Z,61.93
2017-11-03T18:48:42.154Z,52.43
2017-11-03T18:51:09.552Z,62.17
2017-11-03T18:53:36.991Z,65.33
2017-11-03T18:56:04.383Z,63.10
2017-11-03T18:58:31.806Z,57.93
2017-11-03T19:00:59.211Z,58.47
2017-11-03T19:03:26.605Z,58.60
2017-11-03T19:05:54.007Z,59.67
2017-11-03T19:08:21.421Z,57.77
2017-11-03T19:10:48.827Z,61.23
2017-11-03T19:13:16.240Z,62.70
2017-11-03T19:15:43.697Z,57.53
2017-11-03T19:18:11.079Z,63.27
2017-11-03T19:20:38.482Z,59.33
2017-11-03T19:23:05.962Z,56.77
2017-11-03T19:25:33.359Z,64.17
2017-11-03T19:28:00.779Z,56.10
2017-11-03T19:30:28.229Z,61.60
2017-11-03T19:32:55.623Z,54.77
2017-11-03T19:35:23.026Z,56.43
2017-11-03T19:37:50.411Z,56.20
2017-11-03T19:40:17.856Z,59.13
2017-11-03T19:42:45.243Z,51.47
2017-11-03T19:45:12.663Z,61.27
2017-11-03T19:47:40.060Z,55.40
2017-11-03T19:50:07.478Z,55.57
2017-11-03T19:52:34.879Z,56.37
2017-11-03T19:55:02.382Z,49.53
2017-11-03T19:57:29.790Z,59.10
2017-11-03T19:59:57.194Z,52.60
2017-11-03T20:02:24.631Z,50.73
2017-11-03T20:04:52.107Z,54.37
2017-11-03T20:07:19.497Z,52.53
2017-11-03T20:09:46.898Z,51.60
2017-11-03T20:12:14.290Z,54.73
2017-11-03T20:14:41.698Z,53.67
2017-11-03T20:17:09.103Z,57.13
2017-11-03T20:19:36.495Z,63.00
2017-11-03T20:22:03.902Z,56.70
2017-11-03T20:24:31.381Z,57.10
2017-11-03T20:26:58.785Z,54.10
2017-11-03T20:29:26.175Z,56.20
2017-11-03T20:31:53.591Z,55.70
2017-11-03T20:34:20.971Z,59.40
2017-11-03T20:36:48.434Z,51.50
2017-11-03T20:39:15.887Z,55.13
2017-11-03T20:41:43.294Z,60.57
2017-11-03T20:44:10.695Z,53.33
2017-11-03T20:46:38.098Z,55.40
2017-11-03T20:49:05.490Z,53.37
2017-11-03T20:51:32.886Z,55.80
2017-11-03T20:54:00.294Z,52.63
2017-11-03T20:56:27.688Z,52.23
2017-11-03T20:58:55.078Z,54.00
2017-11-03T21:01:22.498Z,57.50
2017-11-03T21:03:49.898Z,60.13
2017-11-03T21:06:17.308Z,55.57
2017-11-03T21:08:44.717Z,59.40
2017-11-03T21:11:12.111Z,61.17
2017-11-03T21:13:39.561Z,51.17
2017-11-03T21:16:06.985Z,49.63
2017-11-03T21:18:34.395Z,53.83
2017-11-03T21:21:01.828Z,53.33
2017-11-03T21:23:29.234Z,57.07
2017-11-03T21:25:56.640Z,53.60
2017-11-03T21:28:24.101Z,55.27
2017-11-03T21:30:51.559Z,49.77
2017-11-03T21:33:19.006Z,49.97
2017-11-03T21:35:46.402Z,60.67
2017-11-03T21:38:13.790Z,52.23
2017-11-03T21:40:41.193Z,62.90
2017-11-03T21:43:08.593Z,50.33
2017-11-03T21:45:36.083Z,55.30
2017-11-03T21:48:03.511Z,47.73
2017-11-03T21:50:30.903Z,53.93
2017-11-03T21:52:58.301Z,59.37
2017-11-03T21:55:25.694Z,54.93
2017-11-03T21:57:53.094Z,55.80
2017-11-03T22:00:20.496Z,57.80
2017-11-03T22:02:47.943Z,56.33
2017-11-03T22:05:15.479Z,53.70
2017-11-03T22:07:42.898Z,58.03
2017-11-03T22:10:10.295Z,67.87
2017-11-03T22:12:37.699Z,58.97
2017-11-03T22:15:05.162Z,62.90
2017-11-03T22:17:32.642Z,69.33
2017-11-03T22:20:00.040Z,63.30
2017-11-03T22:22:27.434Z,65.80
2017-11-03T22:24:54.836Z,60.43
2017-11-03T22:27:22.357Z,66.27
2017-11-03T22:29:49.761Z,64.30
2017-11-03T22:32:17.151Z,70.00
2017-11-03T22:34:44.558Z,63.80
2017-11-03T22:37:12.067Z,61.20
2017-11-03T22:39:39.471Z,64.17
2017-11-03T22:42:06.878Z,60.20
2017-11-03T22:44:34.272Z,66.40
2017-11-03T22:47:01.660Z,69.40
2017-11-03T22:49:29.071Z,60.60
2017-11-03T22:51:56.489Z,61.93
2017-11-03T22:54:23.958Z,72.60
2017-11-03T22:56:51.408Z,74.60
2017-11-03T22:59:18.806Z,66.97
2017-11-03T23:01:46.222Z,64.67
2017-11-03T23:04:13.620Z,64.93
2017-11-03T23:06:41.034Z,75.30
2017-11-03T23:09:08.491Z,64.73
2017-11-03T23:11:35.896Z,76.63
2017-11-03T23:14:03.307Z,75.23
2017-11-03T23:16:30.712Z,85.90
2017-11-03T23:18:58.110Z,79.20
2017-11-03T23:21:25.519Z,75.73
2017-11-03T23:23:52.911Z,74.73
2017-11-03T23:26:20.382Z,73.07
2017-11-03T23:28:47.837Z,73.33
2017-11-03T23:31:15.246Z,69.50
2017-11-03T23:33:42.782Z,71.13
2017-11-03T23:36:10.199Z,71.23
2017-11-03T23:38:37.594Z,64.07
2017-11-03T23:41:05.119Z,77.07
2017-11-03T23:43:32.510Z,72.60
2017-11-03T23:45:59.926Z,66.43
2017-11-03T23:48:27.326Z,71.87
2017-11-03T23:50:54.718Z,66.27
2017-11-03T23:53:22.191Z,65.53
2017-11-03T23:55:49.586Z,68.70
2017-11-03T23:58:17.029Z,71.43
